Freer, Texas
Current Conditions -  °F | °C
As of 12:58 AM on Sunday 23 Nov 2014 (Local Time) from KNMT Reporting Station
Clear Clear  
Wind Chill: 57°   Ceiling: Unl
Heat Index: 57°   Visibility: NA
Dew Point: 54°   Wind: 10mph
Humidity: 89%   Direction: 340°NNW
Pressure: 29.72"   Gusts: 17mph
Location:  27.88°N, 98.62°W
Report Text: KNMT 230658Z AUTO 34009G15KT CLR 14/12 A2972 RMK AO2 SLP105 T01390122 PNO $
Loading
Personal Weather Stations






























Interactive Weather Map New forecast layout! Learn more

10-Day Weather Forecast

Advertisements
Track Severe Weather on mobile